createdAt,value
2022-12-15T00:04:02.504Z,82.35
2022-12-15T00:06:50.046Z,82.32
2022-12-15T00:09:36.679Z,82.22
2022-12-15T00:12:22.577Z,82.21
2022-12-15T00:15:08.327Z,82.30
2022-12-15T00:17:54.382Z,82.31
2022-12-15T00:21:06.528Z,82.30
2022-12-15T00:27:02.159Z,82.39
2022-12-15T00:29:48.245Z,82.33
2022-12-15T00:32:34.282Z,82.45
2022-12-15T00:38:33.617Z,82.42
2022-12-15T00:43:53.711Z,82.54
2022-12-15T00:46:57.039Z,82.26
2022-12-15T00:49:46.455Z,82.24
2022-12-15T00:52:33.989Z,82.34
2022-12-15T00:55:25.757Z,82.19
2022-12-15T00:58:17.890Z,82.55
2022-12-15T01:01:30.392Z,82.41
2022-12-15T01:04:16.571Z,82.34
2022-12-15T01:07:02.471Z,82.26
2022-12-15T01:09:48.319Z,82.35
2022-12-15T01:12:39.291Z,82.55
2022-12-15T01:15:50.718Z,83.11
2022-12-15T01:18:35.995Z,83.16
2022-12-15T01:21:08.800Z,83.09
2022-12-15T01:23:36.402Z,83.20
2022-12-15T01:26:05.568Z,83.20
2022-12-15T01:28:35.005Z,83.17
2022-12-15T01:31:13.574Z,83.31
2022-12-15T01:33:44.378Z,83.49
2022-12-15T01:39:51.672Z,83.19
2022-12-15T01:42:24.766Z,83.15
2022-12-15T01:44:54.190Z,82.81
2022-12-15T01:47:28.288Z,82.84
2022-12-15T01:49:55.728Z,82.81
2022-12-15T01:52:23.715Z,82.80
2022-12-15T02:00:45.830Z,82.48
2022-12-15T02:03:14.306Z,82.51
2022-12-15T02:05:42.304Z,82.39
2022-12-15T02:08:10.941Z,82.26
2022-12-15T02:10:59.265Z,82.37
2022-12-15T02:13:46.139Z,82.34
2022-12-15T02:16:18.768Z,82.42
2022-12-15T02:19:07.240Z,82.27
2022-12-15T02:21:46.731Z,82.51
2022-12-15T02:24:30.928Z,82.35
2022-12-15T02:27:13.085Z,82.39
2022-12-15T02:30:07.804Z,82.33
2022-12-15T02:33:01.350Z,82.61
2022-12-15T02:35:38.295Z,82.56
2022-12-15T02:38:05.734Z,82.25
2022-12-15T02:40:33.708Z,82.09
2022-12-15T02:43:10.451Z,82.31
2022-12-15T02:45:55.907Z,82.31
2022-12-15T02:48:38.225Z,82.28
2022-12-15T02:51:54.760Z,82.21
2022-12-15T02:54:34.522Z,82.30
2022-12-15T02:57:13.220Z,82.67
2022-12-15T03:00:07.274Z,82.49
2022-12-15T03:02:44.734Z,82.38
2022-12-15T03:05:19.617Z,82.39
2022-12-15T03:07:53.348Z,82.25
2022-12-15T03:10:24.411Z,82.29
2022-12-15T03:12:57.368Z,82.76
2022-12-15T03:15:29.047Z,82.52
2022-12-15T03:20:51.857Z,82.44
2022-12-15T03:23:19.949Z,82.74
2022-12-15T03:25:49.684Z,82.77
2022-12-15T03:28:43.702Z,82.69
2022-12-15T03:31:15.793Z,82.48
2022-12-15T03:33:43.705Z,82.34
2022-12-15T03:36:37.783Z,82.29
2022-12-15T03:39:09.694Z,82.30
2022-12-15T03:41:38.011Z,82.21
2022-12-15T03:44:05.983Z,82.46
2022-12-15T03:46:33.832Z,82.54
2022-12-15T03:49:01.733Z,82.45
2022-12-15T03:51:29.674Z,82.46
2022-12-15T03:53:58.876Z,82.40
2022-12-15T03:56:25.920Z,82.41
2022-12-15T03:58:53.714Z,82.53
2022-12-15T04:01:31.884Z,82.46
2022-12-15T04:04:04.722Z,82.18
2022-12-15T04:06:31.732Z,82.09
2022-12-15T04:08:59.731Z,82.10
2022-12-15T04:11:27.687Z,82.24
2022-12-15T04:13:59.703Z,82.36
2022-12-15T04:16:27.711Z,82.07
2022-12-15T04:19:19.286Z,82.11
2022-12-15T04:21:47.760Z,82.03
2022-12-15T04:24:34.245Z,82.15
2022-12-15T04:27:20.298Z,81.93
2022-12-15T04:30:32.712Z,82.17
2022-12-15T04:33:19.014Z,82.03
2022-12-15T04:36:10.365Z,82.16
2022-12-15T04:38:56.347Z,82.03
2022-12-15T04:41:43.273Z,82.02
2022-12-15T04:44:35.831Z,82.26
2022-12-15T04:47:22.685Z,82.27
2022-12-15T04:50:08.472Z,81.99
2022-12-15T04:53:28.875Z,82.50
2022-12-15T04:56:18.633Z,82.29
2022-12-15T04:59:10.024Z,82.36
2022-12-15T05:05:11.040Z,82.34
2022-12-15T05:07:56.036Z,82.34
2022-12-15T05:10:47.458Z,82.30
2022-12-15T05:13:39.347Z,82.15
2022-12-15T05:16:26.464Z,82.63
2022-12-15T05:19:12.652Z,82.86
2022-12-15T05:21:58.479Z,82.35
2022-12-15T05:24:49.304Z,82.64
2022-12-15T05:27:36.214Z,82.57
2022-12-15T05:30:22.630Z,82.64
2022-12-15T05:32:49.884Z,82.70
2022-12-15T05:35:17.736Z,82.90
2022-12-15T05:37:45.704Z,82.48
2022-12-15T05:40:13.826Z,82.72
2022-12-15T05:42:41.752Z,82.46
2022-12-15T05:45:13.816Z,82.47
2022-12-15T05:47:41.683Z,82.61
2022-12-15T05:50:33.698Z,82.44
2022-12-15T05:53:06.801Z,82.35
2022-12-15T05:55:33.697Z,82.53
2022-12-15T05:58:01.743Z,82.67
2022-12-15T06:00:29.670Z,82.60
2022-12-15T06:02:58.208Z,82.30
2022-12-15T06:05:25.924Z,82.39
2022-12-15T06:08:24.894Z,82.18
2022-12-15T06:10:55.053Z,83.73
2022-12-15T06:16:18.974Z,82.89
2022-12-15T06:18:49.924Z,82.55
2022-12-15T06:21:20.260Z,82.45
2022-12-15T06:23:48.056Z,82.48
2022-12-15T06:26:22.941Z,82.30
2022-12-15T06:28:56.102Z,82.36
2022-12-15T06:31:30.297Z,82.31
2022-12-15T06:34:02.119Z,82.43
2022-12-15T06:36:57.888Z,82.22
2022-12-15T06:39:25.736Z,82.32
2022-12-15T06:41:53.737Z,82.20
2022-12-15T06:44:45.673Z,82.06
2022-12-15T06:50:10.027Z,82.48
2022-12-15T06:52:37.683Z,82.55
2022-12-15T06:55:06.223Z,82.74
2022-12-15T06:57:59.832Z,82.44
2022-12-15T07:00:28.024Z,82.25
2022-12-15T07:02:55.883Z,82.06
2022-12-15T07:05:23.715Z,82.26
2022-12-15T07:07:52.346Z,82.20
2022-12-15T07:10:25.716Z,82.22
2022-12-15T07:12:56.209Z,82.35
2022-12-15T07:15:29.246Z,82.25
2022-12-15T07:17:57.750Z,82.11
2022-12-15T07:20:28.919Z,82.24
2022-12-15T07:22:57.736Z,82.34
2022-12-15T07:25:25.740Z,83.38
2022-12-15T07:27:53.693Z,82.67
2022-12-15T07:33:16.803Z,82.18
2022-12-15T07:36:02.302Z,82.35
2022-12-15T07:38:30.112Z,82.51
2022-12-15T07:43:57.015Z,82.70
2022-12-15T07:46:29.949Z,82.77
2022-12-15T07:49:02.849Z,82.67
2022-12-15T07:51:29.741Z,82.68
2022-12-15T07:53:57.717Z,82.53
2022-12-15T07:56:32.211Z,82.64
2022-12-15T07:59:27.678Z,82.50
2022-12-15T08:01:55.811Z,82.34
2022-12-15T08:04:23.670Z,82.59
2022-12-15T08:09:47.653Z,83.03
2022-12-15T08:12:17.078Z,83.13
2022-12-15T08:14:45.173Z,83.52
2022-12-15T08:17:17.782Z,83.70
2022-12-15T08:19:45.752Z,83.62
2022-12-15T08:22:15.152Z,84.09
2022-12-15T08:24:43.877Z,83.66
2022-12-15T08:27:11.706Z,83.55
2022-12-15T08:29:55.328Z,84.67
2022-12-15T08:32:52.762Z,83.88
2022-12-15T08:35:46.855Z,84.43
2022-12-15T08:38:37.460Z,85.12
2022-12-15T08:41:09.715Z,85.15
2022-12-15T08:49:25.801Z,86.25
2022-12-15T08:51:58.834Z,86.46
2022-12-15T08:54:25.862Z,86.44
2022-12-15T08:56:53.693Z,86.64
2022-12-15T08:59:22.332Z,86.76
2022-12-15T09:01:49.818Z,86.84
2022-12-15T09:04:21.809Z,86.32
2022-12-15T09:06:54.710Z,87.12
2022-12-15T09:09:22.281Z,87.46
2022-12-15T09:11:50.082Z,87.29
2022-12-15T09:14:21.584Z,87.76
2022-12-15T09:16:53.827Z,88.09
2022-12-15T09:19:26.706Z,88.00
2022-12-15T09:24:46.498Z,88.40
2022-12-15T09:27:13.725Z,88.35
2022-12-15T09:29:41.843Z,88.21
2022-12-15T09:32:14.118Z,88.79
2022-12-15T09:34:46.994Z,88.78
2022-12-15T09:37:18.772Z,88.64
2022-12-15T09:39:45.775Z,88.52
2022-12-15T09:42:24.784Z,88.73
2022-12-15T09:45:04.801Z,89.01
2022-12-15T09:53:58.805Z,89.67
2022-12-15T09:56:28.848Z,89.70
2022-12-15T09:59:05.676Z,89.36
2022-12-15T10:01:52.726Z,88.92
2022-12-15T10:04:46.268Z,88.90
2022-12-15T10:07:32.166Z,89.41
2022-12-15T10:09:59.739Z,89.61
2022-12-15T10:12:35.648Z,89.66
2022-12-15T10:15:18.883Z,90.11
2022-12-15T10:18:03.969Z,90.08
2022-12-15T10:20:32.988Z,90.14
2022-12-15T10:23:09.495Z,90.25
2022-12-15T10:25:37.864Z,90.27
2022-12-15T10:28:38.262Z,90.47
2022-12-15T10:31:37.524Z,90.37
2022-12-15T10:34:16.853Z,90.71
2022-12-15T10:36:51.003Z,90.76
2022-12-15T10:39:18.009Z,90.70
2022-12-15T10:41:45.705Z,90.69
2022-12-15T10:44:32.023Z,90.47
2022-12-15T10:47:10.088Z,90.62
2022-12-15T10:49:37.987Z,90.49
2022-12-15T10:52:14.255Z,90.35
2022-12-15T10:54:46.010Z,90.30
2022-12-15T10:57:28.542Z,90.43
2022-12-15T11:00:27.764Z,90.38
2022-12-15T11:02:56.259Z,90.39
2022-12-15T11:05:24.502Z,90.33
2022-12-15T11:07:54.548Z,90.14
2022-12-15T11:10:26.676Z,90.27
2022-12-15T11:13:12.868Z,90.13
2022-12-15T11:15:41.173Z,90.21
2022-12-15T11:18:16.578Z,90.40
2022-12-15T11:20:59.577Z,90.24
2022-12-15T11:23:46.593Z,89.90
2022-12-15T11:26:36.409Z,89.89
2022-12-15T11:29:29.957Z,89.75
2022-12-15T11:32:01.523Z,89.75
2022-12-15T11:34:47.474Z,89.88
2022-12-15T11:37:42.155Z,90.03
2022-12-15T11:40:36.613Z,89.90
2022-12-15T11:43:20.111Z,89.80
2022-12-15T11:46:06.001Z,89.88
2022-12-15T11:48:58.483Z,89.80
2022-12-15T11:51:40.411Z,90.09
2022-12-15T11:54:20.177Z,90.00
2022-12-15T11:56:53.511Z,89.78
2022-12-15T11:59:27.751Z,89.72
2022-12-15T12:02:30.404Z,89.66
2022-12-15T12:05:35.798Z,89.68
2022-12-15T12:08:18.681Z,89.57
2022-12-15T12:11:13.060Z,89.35
2022-12-15T12:14:11.687Z,89.31
2022-12-15T12:17:08.877Z,89.23
2022-12-15T12:19:45.819Z,89.73
2022-12-15T12:22:25.860Z,89.32
2022-12-15T12:25:15.583Z,89.33
2022-12-15T12:28:25.641Z,89.17
2022-12-15T12:30:55.998Z,88.84
2022-12-15T12:33:44.750Z,89.35
2022-12-15T12:36:16.021Z,88.67
2022-12-15T12:38:51.214Z,88.79
2022-12-15T12:41:43.378Z,88.96
2022-12-15T12:44:52.122Z,88.71
2022-12-15T12:47:25.023Z,88.69
2022-12-15T12:50:43.545Z,88.87
2022-12-15T12:53:31.618Z,88.96
2022-12-15T12:56:03.962Z,89.14
2022-12-15T12:58:41.383Z,88.76
2022-12-15T13:01:32.581Z,88.45
2022-12-15T13:04:08.849Z,88.58
2022-12-15T13:06:46.742Z,88.39
2022-12-15T13:09:16.911Z,88.52
2022-12-15T13:11:51.095Z,88.42
2022-12-15T13:14:41.244Z,88.28
2022-12-15T13:17:32.157Z,88.38
2022-12-15T13:20:26.472Z,88.00
2022-12-15T13:22:54.813Z,88.06
2022-12-15T13:25:39.079Z,88.45
2022-12-15T13:28:42.608Z,88.64
2022-12-15T13:31:19.096Z,88.40
2022-12-15T13:33:50.618Z,88.32
2022-12-15T13:36:41.620Z,88.36
2022-12-15T13:39:12.838Z,88.03
2022-12-15T13:42:31.640Z,88.00
2022-12-15T13:45:18.086Z,87.90
2022-12-15T13:47:53.580Z,87.87
2022-12-15T13:51:03.777Z,87.95
2022-12-15T13:53:39.408Z,88.45
2022-12-15T13:56:10.876Z,88.22
2022-12-15T13:58:43.213Z,88.15
2022-12-15T14:01:33.940Z,88.32
2022-12-15T14:04:15.348Z,88.14
2022-12-15T14:06:54.639Z,87.89
2022-12-15T14:09:31.258Z,88.37
2022-12-15T14:14:54.020Z,87.68
2022-12-15T14:17:25.704Z,87.81
2022-12-15T14:19:53.751Z,87.92
2022-12-15T14:22:29.422Z,87.74
2022-12-15T14:25:22.085Z,88.35
2022-12-15T14:27:55.813Z,87.71
2022-12-15T14:30:33.199Z,87.40
2022-12-15T14:33:06.960Z,87.63
2022-12-15T14:35:40.724Z,87.20
2022-12-15T14:38:13.032Z,87.17
2022-12-15T14:40:41.395Z,87.38
2022-12-15T14:43:26.870Z,87.64
2022-12-15T14:46:04.962Z,87.52
2022-12-15T14:48:43.517Z,87.24
2022-12-15T14:51:49.712Z,87.06
2022-12-15T14:54:28.061Z,87.46
2022-12-15T14:57:00.822Z,87.55
2022-12-15T14:59:33.598Z,87.16
2022-12-15T15:02:12.765Z,86.74
2022-12-15T15:04:39.872Z,86.81
2022-12-15T15:07:16.958Z,87.34
2022-12-15T15:09:45.867Z,87.11
2022-12-15T15:12:26.804Z,86.78
2022-12-15T15:15:06.188Z,87.01
2022-12-15T15:17:33.637Z,87.08
2022-12-15T15:20:15.820Z,86.92
2022-12-15T15:22:46.109Z,87.00
2022-12-15T15:25:29.168Z,87.06
2022-12-15T15:28:18.988Z,87.45
2022-12-15T15:31:33.917Z,87.41
2022-12-15T15:34:30.541Z,87.26
2022-12-15T15:39:54.981Z,87.35
2022-12-15T15:42:25.487Z,87.28
2022-12-15T15:44:57.750Z,87.57
2022-12-15T15:47:30.596Z,87.21
2022-12-15T15:49:59.678Z,87.47
2022-12-15T15:55:28.743Z,87.01
2022-12-15T15:57:56.246Z,86.93
2022-12-15T16:00:25.650Z,87.16
2022-12-15T16:02:54.583Z,87.09
2022-12-15T16:05:21.727Z,87.05
2022-12-15T16:07:50.247Z,86.90
2022-12-15T16:10:20.410Z,86.80
2022-12-15T16:12:50.694Z,86.89
2022-12-15T16:15:21.327Z,86.75
2022-12-15T16:17:50.144Z,86.93
2022-12-15T16:20:20.086Z,87.33
2022-12-15T16:22:57.182Z,86.90
2022-12-15T16:25:43.809Z,86.66
2022-12-15T16:28:25.713Z,86.46
2022-12-15T16:30:54.197Z,86.50
2022-12-15T16:33:22.082Z,86.30
2022-12-15T16:36:14.935Z,86.89
2022-12-15T16:38:42.818Z,86.56
2022-12-15T16:41:15.058Z,86.57
2022-12-15T16:43:47.724Z,86.70
2022-12-15T16:46:20.994Z,86.54
2022-12-15T16:48:47.783Z,86.13
2022-12-15T16:51:30.767Z,86.26
2022-12-15T16:54:04.087Z,86.33
2022-12-15T16:56:31.851Z,86.33
2022-12-15T16:59:34.330Z,86.05
2022-12-15T17:02:29.180Z,86.20
2022-12-15T17:04:57.747Z,86.98
2022-12-15T17:07:27.810Z,86.30
2022-12-15T17:09:56.642Z,86.20
2022-12-15T17:12:23.769Z,86.17
2022-12-15T17:14:57.489Z,86.42
2022-12-15T17:17:26.527Z,86.40
2022-12-15T17:28:42.843Z,85.98
2022-12-15T17:31:18.337Z,85.89
2022-12-15T17:33:50.713Z,86.06
2022-12-15T17:36:23.866Z,86.31
2022-12-15T17:39:00.558Z,86.04
2022-12-15T17:41:57.999Z,86.10
2022-12-15T17:44:38.942Z,86.20
2022-12-15T17:47:08.567Z,86.37
2022-12-15T17:49:38.717Z,86.51
2022-12-15T17:52:29.328Z,86.42
2022-12-15T17:55:03.147Z,86.66
2022-12-15T17:57:37.029Z,86.47
2022-12-15T18:00:15.691Z,86.32
2022-12-15T18:02:49.063Z,86.24
2022-12-15T18:05:18.795Z,86.36
2022-12-15T18:07:49.930Z,86.16
2022-12-15T18:10:25.470Z,86.14
2022-12-15T18:12:53.848Z,85.97
2022-12-15T18:15:24.900Z,86.54
2022-12-15T18:18:20.843Z,86.75
2022-12-15T18:20:48.538Z,86.70
2022-12-15T18:23:22.728Z,86.17
2022-12-15T18:25:51.076Z,86.56
2022-12-15T18:34:21.166Z,86.16
2022-12-15T18:37:23.883Z,86.42
2022-12-15T18:39:53.238Z,86.21
2022-12-15T18:42:47.216Z,86.33
2022-12-15T18:45:28.276Z,85.81
2022-12-15T18:48:24.515Z,86.02
2022-12-15T18:50:54.460Z,85.91
2022-12-15T18:56:32.720Z,85.62
2022-12-15T19:01:51.841Z,85.64
2022-12-15T19:04:19.699Z,85.97
2022-12-15T19:06:47.835Z,85.85
2022-12-15T19:09:24.036Z,85.83
2022-12-15T19:12:10.383Z,85.82
2022-12-15T19:14:40.598Z,85.71
2022-12-15T19:17:29.350Z,85.85
2022-12-15T19:20:16.268Z,85.57
2022-12-15T19:22:49.131Z,85.77
2022-12-15T19:25:25.793Z,85.97
2022-12-15T19:28:01.015Z,85.84
2022-12-15T19:30:42.181Z,85.92
2022-12-15T19:33:14.044Z,85.90
2022-12-15T19:35:45.659Z,86.00
2022-12-15T19:38:32.942Z,85.63
2022-12-15T19:41:00.203Z,85.64
2022-12-15T19:43:27.813Z,85.55
2022-12-15T19:45:59.744Z,85.61
2022-12-15T19:48:27.729Z,85.67
2022-12-15T19:50:55.863Z,85.38
2022-12-15T19:53:29.327Z,85.49
2022-12-15T19:56:06.323Z,85.67
2022-12-15T19:58:35.291Z,85.54
2022-12-15T20:01:14.738Z,85.58
2022-12-15T20:03:48.589Z,85.48
2022-12-15T20:09:38.706Z,85.47
2022-12-15T20:12:06.247Z,85.56
2022-12-15T20:14:39.688Z,85.49
2022-12-15T20:17:12.905Z,85.37
2022-12-15T20:19:39.923Z,85.52
2022-12-15T20:22:16.166Z,85.27
2022-12-15T20:25:18.841Z,85.61
2022-12-15T20:27:56.919Z,85.55
2022-12-15T20:30:35.351Z,85.51
2022-12-15T20:36:02.819Z,85.79
2022-12-15T20:38:32.657Z,85.46
2022-12-15T20:41:01.487Z,85.69
2022-12-15T20:43:35.277Z,85.48
2022-12-15T20:46:30.467Z,85.67
2022-12-15T20:48:58.067Z,85.66
2022-12-15T20:51:28.530Z,85.62
2022-12-15T20:54:02.863Z,85.62
2022-12-15T20:56:30.205Z,85.93
2022-12-15T20:59:00.230Z,85.82
2022-12-15T21:01:52.927Z,85.35
2022-12-15T21:04:31.968Z,85.60
2022-12-15T21:06:59.700Z,85.74
2022-12-15T21:12:22.201Z,85.43
2022-12-15T21:14:50.922Z,85.26
2022-12-15T21:17:20.206Z,85.16
2022-12-15T21:19:57.744Z,84.91
2022-12-15T21:22:27.580Z,84.78
2022-12-15T21:25:03.252Z,85.27
2022-12-15T21:27:31.736Z,84.86
2022-12-15T21:29:59.725Z,84.86
2022-12-15T21:32:27.716Z,84.95
2022-12-15T21:35:00.104Z,84.62
2022-12-15T21:37:29.217Z,84.84
2022-12-15T21:40:00.513Z,85.12
2022-12-15T21:42:33.784Z,85.00
2022-12-15T21:45:01.816Z,85.16
2022-12-15T21:47:55.911Z,84.89
2022-12-15T21:50:23.917Z,84.85
2022-12-15T21:52:51.752Z,85.14
2022-12-15T21:55:22.428Z,85.03
2022-12-15T21:57:49.837Z,85.03
2022-12-15T22:00:21.277Z,84.80
2022-12-15T22:02:57.108Z,84.99
2022-12-15T22:05:30.328Z,85.05
2022-12-15T22:08:00.388Z,85.08
2022-12-15T22:10:33.725Z,85.12
2022-12-15T22:13:08.067Z,85.28
2022-12-15T22:18:27.689Z,85.03
2022-12-15T22:20:56.225Z,85.33
2022-12-15T22:23:23.707Z,85.15
2022-12-15T22:25:55.065Z,85.23
2022-12-15T22:28:26.533Z,85.17
2022-12-15T22:33:47.719Z,84.99
2022-12-15T22:36:15.794Z,85.44
2022-12-15T22:38:44.843Z,85.16
2022-12-15T22:41:20.608Z,85.21
2022-12-15T22:43:56.199Z,85.21
2022-12-15T22:46:25.087Z,85.35
2022-12-15T22:52:24.857Z,85.65
2022-12-15T22:54:54.181Z,85.63
2022-12-15T22:57:30.790Z,85.65
2022-12-15T23:00:05.671Z,85.91
2022-12-15T23:02:36.985Z,85.61
2022-12-15T23:05:04.915Z,86.07
2022-12-15T23:07:38.799Z,85.71
2022-12-15T23:10:50.554Z,85.52
2022-12-15T23:13:44.074Z,85.49
2022-12-15T23:16:21.777Z,85.57
2022-12-15T23:19:24.382Z,85.71
2022-12-15T23:21:51.971Z,85.68
2022-12-15T23:24:19.770Z,85.62
2022-12-15T23:26:47.879Z,85.34
2022-12-15T23:29:15.954Z,85.44
2022-12-15T23:31:43.689Z,85.58
2022-12-15T23:37:09.795Z,85.81
2022-12-15T23:39:37.669Z,85.72
2022-12-15T23:42:06.202Z,85.54
2022-12-15T23:44:33.724Z,85.83
2022-12-15T23:47:01.881Z,85.88
2022-12-15T23:49:29.996Z,86.11
2022-12-15T23:51:58.132Z,86.74
2022-12-15T23:54:25.907Z,87.17
2022-12-15T23:56:54.073Z,86.35
2022-12-15T23:59:21.710Z,86.39
